Time;durP1;ratioP1;P1;durP2;ratioP2;P2;SDS_P1;SDS_P2;PMS_P1;PMS_P2;Temp;Humidity;BMP_temperature;BMP_pressure;BME280_temperature;BME280_humidity;BME280_pressure;Samples;Min_cycle;Max_cycle;Signal;HPM_P1;HPM_P2
2023/03/13 00:01:39;;;;;;;4.90;4.40;;;;;;;;;;6245868;28;20305;-58
2023/03/13 00:04:40;;;;;;;6.47;5.10;;;;;;;;;;6249225;28;20179;-58
2023/03/13 00:07:41;;;;;;;5.63;4.87;;;;;;;;;;6230258;28;20251;-57
2023/03/13 00:10:42;;;;;;;7.43;5.00;;;;;;;;;;6227591;28;20264;-58
2023/03/13 00:13:43;;;;;;;7.03;5.03;;;;;;;;;;6232239;28;20201;-58
2023/03/13 00:16:44;;;;;;;5.17;3.97;;;;;;;;;;6241626;28;20206;-58
2023/03/13 00:19:46;;;;;;;5.70;3.97;;;;;;;;;;6227990;28;20226;-58
2023/03/13 00:22:47;;;;;;;4.40;3.60;;;;;;;;;;6245729;28;20313;-58
2023/03/13 00:25:48;;;;;;;5.40;3.70;;;;;;;;;;6232146;28;20226;-58
2023/03/13 00:28:49;;;;;;;4.37;3.70;;;;;;;;;;6228334;28;20201;-58
2023/03/13 00:31:50;;;;;;;4.10;3.20;;;;;;;;;;6242387;28;20248;-58
2023/03/13 00:34:51;;;;;;;5.90;3.70;;;;;;;;;;6234256;28;20235;-57
2023/03/13 00:37:54;;;;;;;3.90;3.37;;;;;;;;;;6225435;28;20210;-58
2023/03/13 00:40:59;;;;;;;5.63;3.73;;;;;;;;;;6230989;28;20220;-57
2023/03/13 00:44:00;;;;;;;5.00;3.83;;;;;;;;;;6230243;28;20240;-58
2023/03/13 00:47:01;;;;;;;7.23;4.10;;;;;;;;;;6232235;28;20220;-58
2023/03/13 00:50:02;;;;;;;3.93;3.53;;;;;;;;;;6230807;28;20198;-59
2023/03/13 00:53:03;;;;;;;5.30;3.97;;;;;;;;;;6231301;28;20213;-58
2023/03/13 00:56:09;;;;;;;6.30;4.63;;;;;;;;;;6231452;28;20201;-58
2023/03/13 00:59:10;;;;;;;5.90;3.70;;;;;;;;;;6245717;28;20186;-57
2023/03/13 01:02:11;;;;;;;4.03;3.30;;;;;;;;;;6229503;28;20228;-58
2023/03/13 01:05:12;;;;;;;4.73;3.83;;;;;;;;;;6226951;28;20202;-58
2023/03/13 01:08:13;;;;;;;5.43;3.93;;;;;;;;;;6247262;28;20186;-58
2023/03/13 01:11:19;;;;;;;7.00;4.10;;;;;;;;;;6242354;28;20200;-55
2023/03/13 01:14:20;;;;;;;4.17;3.43;;;;;;;;;;6241879;28;20194;-58
2023/03/13 01:17:21;;;;;;;5.07;3.67;;;;;;;;;;6221530;28;20249;-56
2023/03/13 01:20:22;;;;;;;4.10;3.70;;;;;;;;;;6224097;28;20214;-57
2023/03/13 01:23:23;;;;;;;4.80;3.63;;;;;;;;;;6216388;28;20204;-58
2023/03/13 01:26:25;;;;;;;6.47;3.87;;;;;;;;;;6230332;28;20201;-58
2023/03/13 01:29:26;;;;;;;4.70;3.90;;;;;;;;;;6247590;28;20193;-55
2023/03/13 01:32:27;;;;;;;6.40;3.70;;;;;;;;;;6227813;28;20198;-58
2023/03/13 01:35:28;;;;;;;6.07;4.20;;;;;;;;;;6221683;28;20242;-58
2023/03/13 01:38:29;;;;;;;5.47;3.83;;;;;;;;;;6229122;28;20208;-56
2023/03/13 01:41:30;;;;;;;3.70;3.27;;;;;;;;;;6226883;28;20241;-59
2023/03/13 01:44:49;;;;;;;4.27;3.63;;;;;;;;;;6239068;28;20282;-58
2023/03/13 01:47:50;;;;;;;3.50;3.03;;;;;;;;;;6237887;28;20188;-58
2023/03/13 01:50:52;;;;;;;4.60;3.73;;;;;;;;;;6256948;28;20236;-59
2023/03/13 01:53:56;;;;;;;3.70;3.27;;;;;;;;;;6224515;28;20209;-58
2023/03/13 01:56:59;;;;;;;5.60;4.20;;;;;;;;;;6243966;28;20205;-58
2023/03/13 02:00:11;;;;;;;5.87;3.70;;;;;;;;;;6247265;28;20191;-58
2023/03/13 02:03:13;;;;;;;4.67;3.93;;;;;;;;;;6246763;28;20179;-58
2023/03/13 02:06:14;;;;;;;5.67;3.53;;;;;;;;;;6247271;28;20217;-59
2023/03/13 02:09:19;;;;;;;7.87;4.03;;;;;;;;;;6239707;28;20194;-58
2023/03/13 02:12:38;;;;;;;5.53;4.60;;;;;;;;;;6249014;28;20256;-56
2023/03/13 02:15:40;;;;;;;6.77;4.77;;;;;;;;;;6250846;28;20198;-58
2023/03/13 02:18:41;;;;;;;8.60;4.20;;;;;;;;;;6245330;28;20217;-58
2023/03/13 02:21:56;;;;;;;6.77;4.57;;;;;;;;;;6238034;28;20217;-58
2023/03/13 02:25:16;;;;;;;6.33;4.30;;;;;;;;;;6251003;28;20214;-58
2023/03/13 02:28:17;;;;;;;7.40;4.40;;;;;;;;;;6250921;28;20340;-58
2023/03/13 02:31:18;;;;;;;5.53;3.67;;;;;;;;;;6248494;28;20213;-57
2023/03/13 02:34:22;;;;;;;6.67;4.07;;;;;;;;;;6221293;28;20205;-57
2023/03/13 02:37:24;;;;;;;5.43;3.90;;;;;;;;;;6247095;28;20329;-58
2023/03/13 02:40:30;;;;;;;7.80;4.60;;;;;;;;;;6252187;28;20218;-58
2023/03/13 02:43:31;;;;;;;5.30;3.50;;;;;;;;;;6250933;28;20182;-58
2023/03/13 02:46:42;;;;;;;8.03;4.50;;;;;;;;;;6249865;28;20186;-57
2023/03/13 02:49:43;;;;;;;6.00;4.10;;;;;;;;;;6248916;28;20282;-57
2023/03/13 02:52:46;;;;;;;5.37;3.77;;;;;;;;;;6227287;28;20223;-56
2023/03/13 02:55:47;;;;;;;4.77;3.70;;;;;;;;;;6246620;28;20201;-57
2023/03/13 02:58:48;;;;;;;6.60;3.80;;;;;;;;;;6233782;28;20194;-53
2023/03/13 03:01:51;;;;;;;5.47;3.20;;;;;;;;;;6236910;28;20221;-57
2023/03/13 03:04:53;;;;;;;5.40;3.77;;;;;;;;;;6230674;28;20192;-57
2023/03/13 03:07:54;;;;;;;5.23;3.77;;;;;;;;;;6250874;28;20193;-58
2023/03/13 03:10:55;;;;;;;4.77;3.67;;;;;;;;;;6233858;28;20194;-57
2023/03/13 03:13:56;;;;;;;4.23;3.60;;;;;;;;;;6249138;28;20281;-57
2023/03/13 03:16:57;;;;;;;5.83;3.87;;;;;;;;;;6227207;28;20205;-58
2023/03/13 03:19:58;;;;;;;6.43;3.60;;;;;;;;;;6242302;28;20193;-59
2023/03/13 03:22:59;;;;;;;4.27;3.30;;;;;;;;;;6230547;28;20228;-59
2023/03/13 03:26:00;;;;;;;4.67;3.73;;;;;;;;;;6231239;28;20190;-59
2023/03/13 03:29:01;;;;;;;4.37;3.60;;;;;;;;;;6234348;28;20225;-58
2023/03/13 03:32:02;;;;;;;3.77;3.23;;;;;;;;;;6221341;28;20197;-58
2023/03/13 03:35:03;;;;;;;4.23;3.77;;;;;;;;;;6237605;28;20236;-57
2023/03/13 03:38:05;;;;;;;4.20;3.60;;;;;;;;;;6236882;28;20202;-57
2023/03/13 03:41:06;;;;;;;4.67;3.90;;;;;;;;;;6228056;28;20218;-57
2023/03/13 03:44:07;;;;;;;5.10;4.00;;;;;;;;;;6243339;28;20195;-57
2023/03/13 03:47:08;;;;;;;7.10;3.97;;;;;;;;;;6220218;28;20201;-58
2023/03/13 03:50:10;;;;;;;5.87;3.60;;;;;;;;;;6232457;28;20194;-57
2023/03/13 03:53:11;;;;;;;5.97;3.57;;;;;;;;;;6241814;28;20215;-58
2023/03/13 03:56:12;;;;;;;6.37;4.17;;;;;;;;;;6248265;28;20205;-56
2023/03/13 03:59:13;;;;;;;4.07;3.60;;;;;;;;;;6236597;28;20201;-58
2023/03/13 04:02:14;;;;;;;6.60;3.87;;;;;;;;;;6232978;28;20218;-58
2023/03/13 04:05:15;;;;;;;3.73;3.17;;;;;;;;;;6233231;28;20200;-58
2023/03/13 04:08:16;;;;;;;3.03;2.80;;;;;;;;;;6241725;28;20182;-58
2023/03/13 04:11:17;;;;;;;3.60;3.27;;;;;;;;;;6226898;28;20199;-58
2023/03/13 04:14:18;;;;;;;3.77;3.37;;;;;;;;;;6231568;28;20194;-57
2023/03/13 04:17:19;;;;;;;3.63;3.27;;;;;;;;;;6217211;28;20281;-58
2023/03/13 04:20:20;;;;;;;3.90;2.87;;;;;;;;;;6236813;28;20234;-58
2023/03/13 04:23:21;;;;;;;5.13;3.40;;;;;;;;;;6227731;28;20185;-58
2023/03/13 04:26:22;;;;;;;4.47;3.60;;;;;;;;;;6234036;28;20197;-58
2023/03/13 04:29:24;;;;;;;3.67;3.17;;;;;;;;;;6212711;28;20188;-58
2023/03/13 04:32:25;;;;;;;3.10;2.80;;;;;;;;;;6233618;28;20186;-58
2023/03/13 04:35:26;;;;;;;6.10;3.20;;;;;;;;;;6223586;28;20285;-56
2023/03/13 04:38:27;;;;;;;6.30;3.77;;;;;;;;;;6245897;28;20244;-58
2023/03/13 04:41:28;;;;;;;6.10;3.40;;;;;;;;;;6225818;28;20234;-57
2023/03/13 04:44:29;;;;;;;3.80;3.30;;;;;;;;;;6247091;28;20211;-58
2023/03/13 04:47:30;;;;;;;5.53;3.00;;;;;;;;;;6235651;28;20204;-57
2023/03/13 04:50:31;;;;;;;5.30;3.47;;;;;;;;;;6218783;28;20222;-57
2023/03/13 04:53:32;;;;;;;3.40;2.80;;;;;;;;;;6223252;28;20199;-58
2023/03/13 04:56:33;;;;;;;3.97;3.20;;;;;;;;;;6224620;28;20198;-59
2023/03/13 04:59:34;;;;;;;4.63;4.13;;;;;;;;;;6231733;28;20202;-58
2023/03/13 05:02:35;;;;;;;4.53;3.30;;;;;;;;;;6238422;28;20308;-60
2023/03/13 05:05:36;;;;;;;5.93;3.80;;;;;;;;;;6226581;28;20193;-60
2023/03/13 05:08:37;;;;;;;8.50;4.03;;;;;;;;;;6236220;28;20182;-60
2023/03/13 05:11:39;;;;;;;4.73;2.90;;;;;;;;;;6248551;28;20185;-59
2023/03/13 05:14:40;;;;;;;3.40;2.90;;;;;;;;;;6224610;28;20210;-56
2023/03/13 05:17:42;;;;;;;4.73;3.30;;;;;;;;;;6220023;28;20206;-56
2023/03/13 05:20:43;;;;;;;5.10;3.00;;;;;;;;;;6253911;28;20226;-57
2023/03/13 05:23:44;;;;;;;5.50;3.53;;;;;;;;;;6245634;28;20197;-53
2023/03/13 05:26:45;;;;;;;4.50;3.67;;;;;;;;;;6230708;28;20193;-57
2023/03/13 05:29:46;;;;;;;6.17;4.00;;;;;;;;;;6237789;28;20190;-53
2023/03/13 05:32:47;;;;;;;5.70;3.23;;;;;;;;;;6242027;28;20216;-56
2023/03/13 05:35:48;;;;;;;4.00;3.60;;;;;;;;;;6225999;28;20297;-55
2023/03/13 05:38:49;;;;;;;6.80;4.27;;;;;;;;;;6247472;28;20206;-56
2023/03/13 05:41:50;;;;;;;5.03;3.90;;;;;;;;;;6225385;28;20225;-53
2023/03/13 05:44:51;;;;;;;4.80;3.53;;;;;;;;;;6226790;28;20193;-55
2023/03/13 05:47:52;;;;;;;4.77;3.90;;;;;;;;;;6228353;28;20201;-57
2023/03/13 05:50:53;;;;;;;4.77;3.33;;;;;;;;;;6227098;28;20292;-54
2023/03/13 05:53:54;;;;;;;5.70;3.40;;;;;;;;;;6224812;28;20216;-56
2023/03/13 05:56:55;;;;;;;4.33;3.40;;;;;;;;;;6229088;28;20342;-56
2023/03/13 05:59:56;;;;;;;7.53;3.57;;;;;;;;;;6221339;28;20231;-57
2023/03/13 06:02:57;;;;;;;4.50;4.07;;;;;;;;;;6223425;28;20222;-52
2023/03/13 06:05:58;;;;;;;7.43;3.03;;;;;;;;;;6227368;28;20214;-56
2023/03/13 06:08:59;;;;;;;5.50;3.57;;;;;;;;;;6240353;28;20186;-56
2023/03/13 06:12:00;;;;;;;6.40;4.10;;;;;;;;;;6229960;28;20206;-57
2023/03/13 06:15:02;;;;;;;5.87;4.63;;;;;;;;;;6242076;28;20209;-57
2023/03/13 06:18:03;;;;;;;7.73;4.23;;;;;;;;;;6234867;28;20187;-55
2023/03/13 06:21:04;;;;;;;5.53;4.17;;;;;;;;;;6226732;28;20226;-58
2023/03/13 06:24:05;;;;;;;7.47;4.13;;;;;;;;;;6232341;28;20193;-51
2023/03/13 06:27:06;;;;;;;5.87;3.57;;;;;;;;;;6231049;28;20199;-57
2023/03/13 06:30:09;;;;;;;5.03;3.60;;;;;;;;;;6223555;28;20229;-55
2023/03/13 06:33:10;;;;;;;6.67;3.90;;;;;;;;;;6245868;28;20199;-57
2023/03/13 06:36:11;;;;;;;5.17;3.87;;;;;;;;;;6236703;28;20237;-58
2023/03/13 06:39:13;;;;;;;5.60;3.60;;;;;;;;;;6247959;28;20190;-57
2023/03/13 06:42:14;;;;;;;4.93;3.70;;;;;;;;;;6236386;28;20229;-57
2023/03/13 06:45:15;;;;;;;4.43;3.63;;;;;;;;;;6229969;28;20225;-58
2023/03/13 06:48:16;;;;;;;3.93;3.53;;;;;;;;;;6245455;28;20191;-57
2023/03/13 06:51:18;;;;;;;4.83;3.57;;;;;;;;;;6230443;28;20202;-57
2023/03/13 06:54:19;;;;;;;6.40;3.50;;;;;;;;;;6255582;28;20195;-54
2023/03/13 06:57:20;;;;;;;4.20;3.40;;;;;;;;;;6247427;28;20281;-55
2023/03/13 07:00:22;;;;;;;4.73;3.77;;;;;;;;;;6246934;28;20273;-56
2023/03/13 07:03:23;;;;;;;4.40;3.73;;;;;;;;;;6233283;28;20186;-56
2023/03/13 07:06:25;;;;;;;4.50;4.03;;;;;;;;;;6231380;28;20247;-56
2023/03/13 07:09:26;;;;;;;6.23;4.33;;;;;;;;;;6233082;28;20210;-55
2023/03/13 07:12:27;;;;;;;7.80;4.07;;;;;;;;;;6207777;28;20205;-55
2023/03/13 07:15:28;;;;;;;5.10;3.53;;;;;;;;;;6236978;28;20201;-54
2023/03/13 07:18:30;;;;;;;6.80;3.97;;;;;;;;;;6230695;28;20206;-58
2023/03/13 07:21:31;;;;;;;8.57;4.83;;;;;;;;;;6245273;28;20213;-52
2023/03/13 07:24:32;;;;;;;6.23;4.20;;;;;;;;;;6217826;28;20198;-55
2023/03/13 07:27:33;;;;;;;8.47;4.90;;;;;;;;;;6241001;28;20214;-52
2023/03/13 07:30:34;;;;;;;5.97;4.37;;;;;;;;;;6245715;28;20185;-54
2023/03/13 07:33:35;;;;;;;4.67;3.93;;;;;;;;;;6226359;28;20205;-53
2023/03/13 07:36:36;;;;;;;5.87;4.60;;;;;;;;;;6221183;28;20249;-54
2023/03/13 07:39:37;;;;;;;6.67;3.90;;;;;;;;;;6232004;28;20190;-54
2023/03/13 07:42:41;;;;;;;6.83;4.43;;;;;;;;;;6228456;28;20241;-56
2023/03/13 07:45:58;;;;;;;7.10;4.30;;;;;;;;;;6227492;28;20193;-52
2023/03/13 07:48:59;;;;;;;6.80;4.00;;;;;;;;;;6239255;28;20282;-54
2023/03/13 07:52:00;;;;;;;4.93;4.03;;;;;;;;;;6247640;28;20226;-56
2023/03/13 07:55:01;;;;;;;5.63;3.93;;;;;;;;;;6230628;28;20223;-56
2023/03/13 07:58:02;;;;;;;5.33;3.87;;;;;;;;;;6226654;28;20204;-56
2023/03/13 08:01:10;;;;;;;5.23;4.20;;;;;;;;;;6225950;28;20218;-55
2023/03/13 08:04:13;;;;;;;7.90;3.90;;;;;;;;;;6238669;28;20191;-56
2023/03/13 08:07:14;;;;;;;10.73;5.07;;;;;;;;;;6243491;28;20193;-55
2023/03/13 08:10:15;;;;;;;8.17;4.20;;;;;;;;;;6238786;28;20190;-53
2023/03/13 08:13:16;;;;;;;5.23;3.67;;;;;;;;;;6236408;28;20199;-53
2023/03/13 08:16:18;;;;;;;6.83;4.97;;;;;;;;;;6224825;28;20202;-50
2023/03/13 08:19:19;;;;;;;7.00;3.70;;;;;;;;;;6223700;28;20246;-53
2023/03/13 08:22:20;;;;;;;5.27;3.70;;;;;;;;;;6229884;28;20295;-56
2023/03/13 08:25:21;;;;;;;5.20;3.87;;;;;;;;;;6227896;28;20193;-56
2023/03/13 08:28:23;;;;;;;6.57;4.43;;;;;;;;;;6242681;28;20285;-53
2023/03/13 08:31:25;;;;;;;6.20;3.67;;;;;;;;;;6246433;28;20186;-53
2023/03/13 08:34:26;;;;;;;4.30;3.20;;;;;;;;;;6243864;28;20275;-51
2023/03/13 08:37:27;;;;;;;6.47;4.03;;;;;;;;;;6226963;28;20329;-55
2023/03/13 08:40:28;;;;;;;8.10;4.00;;;;;;;;;;6224295;28;20233;-52
2023/03/13 08:43:29;;;;;;;7.37;4.10;;;;;;;;;;6229536;28;20198;-55
2023/03/13 08:46:31;;;;;;;8.50;4.53;;;;;;;;;;6221279;28;20187;-52
2023/03/13 08:49:32;;;;;;;5.97;3.87;;;;;;;;;;6232905;28;20179;-55
2023/03/13 08:52:33;;;;;;;5.97;4.33;;;;;;;;;;6243293;28;20250;-52
2023/03/13 08:55:34;;;;;;;4.77;4.20;;;;;;;;;;6239143;28;20181;-55
2023/03/13 08:58:35;;;;;;;7.57;4.00;;;;;;;;;;6223082;28;20204;-53
2023/03/13 09:01:36;;;;;;;6.23;3.87;;;;;;;;;;6225007;28;20237;-55
2023/03/13 09:04:37;;;;;;;6.90;4.67;;;;;;;;;;6227754;28;20194;-57
2023/03/13 09:07:39;;;;;;;9.23;4.60;;;;;;;;;;6225538;28;20194;-54
2023/03/13 09:10:40;;;;;;;7.83;5.10;;;;;;;;;;6244129;28;20307;-53
2023/03/13 09:13:42;;;;;;;5.97;4.10;;;;;;;;;;6220894;28;20199;-56
2023/03/13 09:16:45;;;;;;;8.10;4.70;;;;;;;;;;6237392;28;20197;-56
2023/03/13 09:19:46;;;;;;;6.53;4.10;;;;;;;;;;6227366;28;20187;-54
2023/03/13 09:22:47;;;;;;;5.97;4.40;;;;;;;;;;6225153;28;20221;-56
2023/03/13 09:25:49;;;;;;;6.67;4.70;;;;;;;;;;6224519;28;20187;-54
2023/03/13 09:28:51;;;;;;;5.60;4.13;;;;;;;;;;6237186;28;20237;-55
2023/03/13 09:31:52;;;;;;;6.73;3.63;;;;;;;;;;6240794;28;20219;-54
2023/03/13 09:34:53;;;;;;;6.17;3.60;;;;;;;;;;6232792;28;20233;-52
2023/03/13 09:37:54;;;;;;;3.97;3.23;;;;;;;;;;6223816;28;20198;-55
2023/03/13 09:40:55;;;;;;;5.63;4.30;;;;;;;;;;6221384;28;20224;-54
2023/03/13 09:44:00;;;;;;;9.67;5.70;;;;;;;;;;6244907;28;20277;-53
2023/03/13 09:47:04;;;;;;;7.60;5.53;;;;;;;;;;6243855;28;20194;-52
2023/03/13 09:50:16;;;;;;;8.03;4.63;;;;;;;;;;6242372;28;20190;-53
2023/03/13 09:53:31;;;;;;;8.73;5.43;;;;;;;;;;6240732;28;20199;-54
2023/03/13 09:56:52;;;;;;;8.00;5.30;;;;;;;;;;6239739;28;20195;-53
2023/03/13 09:59:57;;;;;;;9.80;5.50;;;;;;;;;;6232650;28;20238;-54
2023/03/13 10:03:07;;;;;;;7.03;6.00;;;;;;;;;;6236796;28;20225;-53
2023/03/13 10:06:17;;;;;;;7.00;5.10;;;;;;;;;;6234417;28;20272;-55
2023/03/13 10:09:20;;;;;;;9.50;6.23;;;;;;;;;;6252698;28;20274;-55
2023/03/13 10:12:27;;;;;;;13.77;6.27;;;;;;;;;;6237383;28;20206;-55
2023/03/13 10:15:34;;;;;;;8.67;5.77;;;;;;;;;;6244361;28;20187;-56
2023/03/13 10:18:36;;;;;;;8.50;6.47;;;24.70;21.80;;;;;;6235753;28;20218;-55
2023/03/13 10:21:38;;;;;;;11.17;6.40;;;;;;;;;;6226062;28;20222;-56
2023/03/13 10:24:43;;;;;;;12.20;6.87;;;;;;;;;;6225161;28;20241;-52
2023/03/13 10:27:47;;;;;;;10.97;7.50;;;;;;;;;;6242206;28;20191;-54
2023/03/13 10:30:53;;;;;;;11.17;6.87;;;;;;;;;;6243916;28;20199;-56
2023/03/13 10:34:05;;;;;;;14.30;6.77;;;;;;;;;;6245578;28;20225;-53
2023/03/13 10:37:06;;;;;;;9.83;6.77;;;;;;;;;;6248049;28;20254;-56
2023/03/13 10:40:22;;;;;;;10.60;6.73;;;9.30;53.00;;;;;;6242256;28;20195;-55
2023/03/13 10:43:24;;;;;;;9.07;5.93;;;;;;;;;;6238098;28;20184;-57
2023/03/13 10:46:27;;;;;;;9.50;6.17;;;;;;;;;;6239141;28;20222;-56
2023/03/13 10:49:29;;;;;;;11.67;5.70;;;;;;;;;;6240219;28;20180;-54
2023/03/13 10:52:50;;;;;;;10.17;6.17;;;;;;;;;;6230331;28;20210;-56
2023/03/13 10:55:55;;;;;;;8.60;5.57;;;;;;;;;;6236030;28;20207;-56
2023/03/13 10:58:56;;;;;;;8.37;5.33;;;;;;;;;;6248256;28;20196;-52
2023/03/13 11:02:01;;;;;;;9.53;5.20;;;;;;;;;;6248664;28;20214;-56
2023/03/13 11:05:21;;;;;;;7.83;5.30;;;;;;;;;;6247456;28;20657;-53
2023/03/13 11:08:23;;;;;;;7.17;5.20;;;;;;;;;;6246897;28;20188;-51
2023/03/13 11:11:29;;;;;;;9.23;5.30;;;;;;;;;;6244528;28;20206;-55
2023/03/13 11:14:30;;;;;;;8.10;5.63;;;;;;;;;;6236673;28;20219;-54
2023/03/13 11:17:31;;;;;;;8.57;5.53;;;;;;;;;;6248417;28;20201;-52
2023/03/13 11:20:34;;;;;;;9.00;5.10;;;;;;;;;;6245268;28;20185;-55
2023/03/13 11:23:38;;;;;;;7.47;5.57;;;;;;;;;;6241792;28;20195;-54
2023/03/13 11:26:48;;;;;;;8.33;5.33;;;;;;;;;;6249049;28;20187;-56
2023/03/13 11:29:59;;;;;;;6.70;4.83;;;;;;;;;;6239142;28;20209;-54
2023/03/13 11:33:01;;;;;;;8.20;5.90;;;;;;;;;;6247533;28;20253;-55
2023/03/13 11:36:05;;;;;;;9.03;5.77;;;;;;;;;;6246983;28;20265;-56
2023/03/13 11:39:06;;;;;;;9.27;5.37;;;;;;;;;;6240391;28;20282;-55
2023/03/13 11:42:10;;;;;;;6.73;4.77;;;;;;;;;;6231231;28;20222;-55
2023/03/13 11:45:29;;;;;;;5.87;4.90;;;10.20;51.80;;;;;;6226550;28;20188;-55
2023/03/13 11:48:29;;;;;;;8.00;4.60;;;13.60;42.30;;;;;;6240727;28;20191;-52
2023/03/13 11:51:59;;;;;;;7.83;5.30;;;13.70;41.80;;;;;;6239593;28;20277;-54
2023/03/13 11:55:24;;;;;;;6.33;4.70;;;13.70;41.60;;;;;;6216787;28;20231;-55
2023/03/13 11:58:52;;;;;;;6.87;5.73;;;13.60;41.80;;;;;;6242108;28;20210;-55
2023/03/13 12:01:58;;;;;;;10.53;4.83;;;13.80;41.10;;;;;;6246447;28;20229;-55
2023/03/13 12:05:09;;;;;;;8.27;5.27;;;13.90;41.10;;;;;;6241888;28;20196;-56
2023/03/13 12:08:17;;;;;;;4.70;4.20;;;14.10;41.90;;;;;;6237712;28;20191;-56
2023/03/13 12:11:28;;;;;;;7.90;5.40;;;14.30;40.40;;;;;;6245703;28;20185;-55
2023/03/13 12:14:47;;;;;;;6.53;4.27;;;14.40;41.90;;;;;;6235772;28;20229;-54
2023/03/13 12:18:26;;;;;;;6.20;4.90;;;14.80;41.10;;;;;;6241673;28;20709;-55
2023/03/13 12:21:41;;;;;;;6.47;4.33;;;15.20;38.70;;;;;;6232121;28;20226;-56
2023/03/13 12:24:59;;;;;;;5.70;4.57;;;15.50;38.00;;;;;;6241177;28;20274;-56
2023/03/13 12:28:24;;;;;;;5.27;3.60;;;15.50;38.60;;;;;;6239268;28;20281;-53
2023/03/13 12:31:41;;;;;;;7.37;4.33;;;15.60;38.80;;;;;;6239702;28;20198;-55
2023/03/13 12:34:42;;;;;;;5.63;4.03;;;;;;;;;;6245177;28;20214;-56
2023/03/13 12:37:46;;;;;;;5.70;4.23;;;16.00;36.90;;;;;;6240329;28;20191;-58
2023/03/13 12:41:09;;;;;;;5.80;4.20;;;16.60;37.00;;;;;;6240045;28;20215;-58
2023/03/13 12:44:17;;;;;;;4.23;3.83;;;16.90;36.40;;;;;;6243148;28;20191;-57
2023/03/13 12:47:39;;;;;;;5.33;4.73;;;17.10;35.30;;;;;;6241311;28;20184;-56
2023/03/13 12:50:54;;;;;;;3.97;3.47;;;17.20;35.10;;;;;;6240797;28;20195;-56
2023/03/13 12:54:16;;;;;;;4.93;4.33;;;16.90;35.90;;;;;;6249062;28;20183;-56
2023/03/13 12:57:27;;;;;;;4.70;3.73;;;;;;;;;;6236844;28;20218;-57
2023/03/13 13:00:30;;;;;;;7.40;3.93;;;17.10;35.70;;;;;;6245690;28;20243;-56
2023/03/13 13:03:32;;;;;;;5.10;3.67;;;;;;;;;;6236079;28;20190;-56
2023/03/13 13:06:52;;;;;;;5.40;4.03;;;;;;;;;;6244834;28;20248;-56
2023/03/13 13:10:08;;;;;;;4.90;3.83;;;17.90;35.50;;;;;;6246467;28;20186;-50
2023/03/13 13:13:14;;;;;;;4.50;4.10;;;20.80;33.20;;;;;;6235897;28;20198;-51
2023/03/13 13:16:20;;;;;;;5.07;4.20;;;21.90;30.50;;;;;;6245342;28;20194;-58
2023/03/13 13:19:24;;;;;;;5.80;4.13;;;;;;;;;;6245788;28;20186;-52
2023/03/13 13:22:37;;;;;;;4.30;3.13;;;;;;;;;;6239022;28;20298;-56
2023/03/13 13:25:38;;;;;;;4.10;3.50;;;;;;;;;;6233121;28;20183;-57
2023/03/13 13:28:42;;;;;;;4.57;3.93;;;;;;;;;;6238315;28;20191;-56
2023/03/13 13:31:49;;;;;;;6.20;3.40;;;;;;;;;;6233484;28;20233;-56
2023/03/13 13:34:55;;;;;;;3.23;2.77;;;;;;;;;;6237451;28;20191;-56
2023/03/13 13:38:15;;;;;;;4.47;3.30;;;;;;;;;;6242645;28;20195;-56
2023/03/13 13:41:16;;;;;;;3.07;2.70;;;21.90;29.70;;;;;;6239430;28;20215;-56
2023/03/13 13:44:24;;;;;;;3.67;2.77;;;;;;;;;;6241535;28;20482;-56
2023/03/13 13:47:27;;;;;;;4.30;3.00;;;;;;;;;;6241411;28;20187;-56
2023/03/13 13:50:29;;;;;;;2.70;2.47;;;;;;;;;;6239555;28;20218;-57
2023/03/13 13:53:32;;;;;;;2.73;2.53;;;;;;;;;;6235362;28;20201;-56
2023/03/13 13:56:52;;;;;;;3.53;2.43;;;;;;;;;;6238883;28;20195;-56
2023/03/13 14:00:14;;;;;;;2.67;2.10;;;23.70;27.20;;;;;;6241726;28;20254;-57
2023/03/13 14:03:25;;;;;;;2.00;1.80;;;19.70;31.90;;;;;;6243860;28;20245;-57
2023/03/13 14:06:31;;;;;;;4.40;2.30;;;;;;;;;;6240335;28;20195;-56
2023/03/13 14:09:51;;;;;;;3.10;2.30;;;;;;;;;;6241982;28;20187;-57
2023/03/13 14:12:59;;;;;;;3.20;2.00;;;;;;;;;;6244674;28;20198;-59
2023/03/13 14:16:12;;;;;;;2.40;2.20;;;;;;;;;;6239517;28;20203;-57
2023/03/13 14:19:25;;;;;;;1.63;1.50;;;18.80;32.90;;;;;;6243163;28;20203;-57
2023/03/13 14:22:45;;;;;;;2.33;1.83;;;16.70;35.90;;;;;;6239415;28;20211;-57
2023/03/13 14:25:47;;;;;;;2.33;2.13;;;;;;;;;;6249287;28;20192;-57
2023/03/13 14:28:51;;;;;;;3.10;2.40;;;16.50;35.00;;;;;;6249462;28;20197;-57
2023/03/13 14:31:58;;;;;;;2.20;1.97;;;16.10;35.70;;;;;;6246281;28;20207;-57
2023/03/13 14:34:59;;;;;;;2.73;2.10;;;16.00;36.50;;;;;;6235971;28;20273;-57
2023/03/13 14:38:01;;;;;;;3.87;2.73;;;16.00;38.20;;;;;;6235668;28;20194;-55
2023/03/13 14:41:02;;;;;;;3.30;2.00;;;;;;;;;;6247642;28;20211;-57
2023/03/13 14:44:05;;;;;;;5.57;2.27;;;;;;;;;;6234789;28;20190;-54
2023/03/13 14:47:08;;;;;;;4.03;2.33;;;;;;;;;;6246005;28;20195;-55
2023/03/13 14:50:11;;;;;;;3.43;2.63;;;;;;;;;;6243640;28;20199;-56
2023/03/13 14:53:16;;;;;;;6.67;2.40;;;;;;;;;;6240150;28;20222;-55
2023/03/13 14:56:20;;;;;;;4.50;2.27;;;;;;;;;;6248663;28;20191;-56
2023/03/13 14:59:27;;;;;;;3.03;2.60;;;;;;;;;;6247432;28;20256;-57
2023/03/13 15:02:31;;;;;;;3.70;2.97;;;;;;;;;;6254943;28;20299;-57
2023/03/13 15:05:33;;;;;;;6.60;2.80;;;;;;;;;;6249035;28;20187;-57
2023/03/13 15:08:36;;;;;;;4.77;2.90;;;16.10;37.80;;;;;;6240641;28;20199;-56
2023/03/13 15:11:41;;;;;;;3.03;2.60;;;18.90;33.70;;;;;;6244746;28;20198;-58
2023/03/13 15:14:44;;;;;;;3.27;2.30;;;20.30;32.90;;;;;;6226411;28;20261;-57
2023/03/13 15:17:45;;;;;;;4.53;2.93;;;21.30;31.10;;;;;;6256085;28;20225;-56
2023/03/13 15:21:12;;;;;;;2.87;2.57;;;21.90;30.40;;;;;;6224856;28;20200;-56
2023/03/13 15:24:14;;;;;;;3.40;2.87;;;22.60;29.20;;;;;;6228601;28;20195;-55
2023/03/13 15:27:17;;;;;;;3.40;2.80;;;22.50;29.00;;;;;;6249760;28;20186;-55
2023/03/13 15:30:22;;;;;;;2.83;2.63;;;22.10;30.20;;;;;;6243289;28;20191;-56
2023/03/13 15:33:27;;;;;;;2.77;2.50;;;21.80;30.70;;;;;;6239843;28;20191;-56
2023/03/13 15:36:29;;;;;;;5.37;2.47;;;21.90;30.50;;;;;;6249641;28;20237;-56
2023/03/13 15:39:30;;;;;;;2.80;2.60;;;22.00;29.90;;;;;;6232643;28;20220;-56
2023/03/13 15:42:30;;;;;;;5.00;2.80;;;21.60;30.10;;;;;;6242672;28;20220;-55
2023/03/13 15:45:31;;;;;;;4.87;2.90;;;21.10;30.90;;;;;;6232746;28;20310;-55
2023/03/13 15:48:32;;;;;;;4.27;3.00;;;20.70;32.10;;;;;;6223141;28;20210;-54
2023/03/13 15:51:33;;;;;;;3.33;2.40;;;20.70;31.40;;;;;;6217192;28;20198;-55
2023/03/13 15:54:33;;;;;;;4.30;2.73;;;21.00;31.60;;;;;;6225411;28;20223;-57
2023/03/13 15:57:36;;;;;;;4.20;2.57;;;21.00;31.60;;;;;;6245745;28;20194;-54
2023/03/13 16:00:38;;;;;;;4.10;2.73;;;20.80;31.80;;;;;;6249765;28;20194;-54
2023/03/13 16:03:39;;;;;;;4.23;2.77;;;20.70;32.10;;;;;;6231903;28;20202;-55
2023/03/13 16:06:40;;;;;;;3.40;2.80;;;20.50;32.90;;;;;;6232494;28;20190;-57
2023/03/13 16:09:42;;;;;;;3.17;2.70;;;20.50;32.80;;;;;;6211588;28;20195;-55
2023/03/13 16:12:43;;;;;;;4.30;2.77;;;20.20;32.70;;;;;;6237667;28;20199;-52
2023/03/13 16:15:44;;;;;;;3.40;2.40;;;19.70;33.00;;;;;;6216045;28;20226;-57
2023/03/13 16:18:46;;;;;;;2.23;2.00;;;;;;;;;;6243981;28;20182;-57
2023/03/13 16:21:51;;;;;;;2.80;2.53;;;19.00;33.80;;;;;;6244255;28;20214;-57
2023/03/13 16:24:52;;;;;;;4.90;2.77;;;17.50;36.90;;;;;;6231437;28;20182;-57
2023/03/13 16:27:54;;;;;;;3.60;2.40;;;17.00;38.20;;;;;;6221330;28;20217;-57
2023/03/13 16:30:55;;;;;;;4.73;3.03;;;16.40;39.30;;;;;;6227409;28;20193;-58
2023/03/13 16:33:57;;;;;;;4.33;3.13;;;15.80;40.40;;;;;;6215960;28;20187;-58
2023/03/13 16:36:58;;;;;;;6.60;2.90;;;15.30;42.10;;;;;;6246649;28;20230;-57
2023/03/13 16:39:59;;;;;;;4.33;2.43;;;14.90;42.90;;;;;;6230367;28;20240;-58
2023/03/13 16:43:01;;;;;;;2.57;2.37;;;;;;;;;;6224291;28;20220;-57
2023/03/13 16:46:05;;;;;;;2.97;2.60;;;14.60;43.40;;;;;;6235826;28;20300;-59
2023/03/13 16:49:09;;;;;;;2.80;2.43;;;14.00;44.40;;;;;;6222611;28;20199;-57
2023/03/13 16:52:15;;;;;;;2.50;2.30;;;;;;;;;;6240906;28;20183;-58
2023/03/13 16:55:17;;;;;;;3.07;2.50;;;;;;;;;;6243642;28;20191;-59
2023/03/13 16:58:18;;;;;;;3.73;2.70;;;;;;;;;;6226010;28;20238;-60
2023/03/13 17:01:19;;;;;;;4.13;2.70;;;;;;;;;;6231661;28;20225;-57
2023/03/13 17:04:20;;;;;;;3.07;2.67;;;;;;;;;;6239185;28;20306;-57
2023/03/13 17:07:23;;;;;;;4.90;2.90;;;13.50;45.90;;;;;;6231475;28;20199;-57
2023/03/13 17:10:26;;;;;;;5.47;2.70;;;;;;;;;;6245402;28;20195;-58
2023/03/13 17:13:27;;;;;;;5.07;2.83;;;;;;;;;;6247611;28;20328;-58
2023/03/13 17:16:32;;;;;;;4.70;2.63;;;;;;;;;;6245807;28;20194;-59
2023/03/13 17:19:34;;;;;;;3.43;2.70;;;;;;;;;;6242369;28;20191;-56
2023/03/13 17:22:35;;;;;;;3.63;2.77;;;;;;;;;;6246549;28;20218;-57
2023/03/13 17:25:36;;;;;;;2.37;2.17;;;;;;;;;;6240570;28;20261;-57
2023/03/13 17:28:37;;;;;;;2.83;2.53;;;;;;;;;;6222970;28;20192;-55
2023/03/13 17:31:40;;;;;;;3.43;2.50;;;;;;;;;;6232723;28;20183;-57
2023/03/13 17:34:41;;;;;;;3.97;3.40;;;;;;;;;;6237539;28;20289;-58
2023/03/13 17:37:43;;;;;;;3.97;3.17;;;;;;;;;;6248492;28;20217;-56
2023/03/13 17:40:44;;;;;;;3.33;2.90;;;;;;;;;;6226170;28;20214;-57
2023/03/13 17:43:45;;;;;;;6.83;3.40;;;;;;;;;;6225630;28;20257;-56
2023/03/13 17:46:47;;;;;;;5.10;2.70;;;;;;;;;;6230007;28;20191;-56
2023/03/13 17:49:48;;;;;;;4.37;3.07;;;;;;;;;;6244516;28;20187;-56